Schneifelwetter: Wetterstation Hallschlag, 537 m . NN
Wetterdaten: Samstag, 27.02.2010
Datum Zeit Temp. A. Feuchte A. Luftdruck Regen Wind Richtung Richtung Sonnenschein Helligkeit T Regen Taupunkt Windchill
27.02.2010 00:10 -0,5 C 91 % 1001 hPa 0,0 l/m 24,5 km/h (4 Bft) SW45 235 0 min 0 lux 0,00 min -1,8 C -12,2 C
27.02.2010 00:24 -0,4 C 92 % 1001 hPa 0,0 l/m 27,7 km/h (4 Bft) SW45 235 0 min 0 lux 0,00 min -1,5 C -13,2 C
27.02.2010 00:39 -0,4 C 92 % 1002 hPa 0,0 l/m 23,9 km/h (4 Bft) SW45 230 0 min 0 lux 0,00 min -1,5 C -11,8 C
27.02.2010 00:54 -0,4 C 92 % 1001 hPa 0,0 l/m 26,2 km/h (4 Bft) SW22.5 230 0 min 0 lux 0,00 min -1,5 C -12,7 C
27.02.2010 01:09 -0,5 C 92 % 1002 hPa 0,0 l/m 24,1 km/h (4 Bft) W-SW45 240 0 min 0 lux 0,00 min -1,6 C -12,0 C
27.02.2010 01:24 -0,4 C 93 % 1002 hPa 0,0 l/m 24,3 km/h (4 Bft) SW45 230 0 min 0 lux 0,00 min -1,4 C -12,0 C
27.02.2010 01:39 -0,5 C 92 % 1002 hPa 0,0 l/m 22,3 km/h (4 Bft) SW45 235 0 min 0 lux 0,00 min -1,6 C -11,3 C
27.02.2010 01:54 -0,6 C 93 % 1002 hPa 0,0 l/m 18,1 km/h (3 Bft) W-SW22.5 250 0 min 0 lux 0,00 min -1,6 C -9,5 C
27.02.2010 02:09 -0,6 C 93 % 1002 hPa 0,0 l/m 20,7 km/h (4 Bft) W-SW45 240 0 min 0 lux 0,00 min -1,6 C -10,7 C
27.02.2010 02:24 -0,6 C 94 % 1002 hPa 0,0 l/m 23,3 km/h (4 Bft) W-SW22.5 240 0 min 0 lux 0,00 min -1,4 C -11,9 C
27.02.2010 02:39 -0,2 C 94 % 1002 hPa 0,0 l/m 23,7 km/h (4 Bft) W-SW22.5 250 0 min 0 lux 0,00 min -1,0 C -11,5 C
27.02.2010 02:54 0,1 C 93 % 1002 hPa 0,0 l/m 29,6 km/h (5 Bft) SW67.5 235 0 min 0 lux 0,00 min -0,9 C -13,1 C
27.02.2010 03:09 0,1 C 93 % 1002 hPa 0,0 l/m 19,3 km/h (3 Bft) W-SW22.5 245 0 min 0 lux 0,00 min -0,9 C -9,2 C
27.02.2010 03:24 0,1 C 93 % 1002 hPa 0,0 l/m 21,4 km/h (4 Bft) W-SW45 240 0 min 0 lux 0,00 min -0,9 C -10,1 C
27.02.2010 03:39 0,1 C 93 % 1002 hPa 0,0 l/m 27,6 km/h (4 Bft) SW45 235 0 min 0 lux 0,00 min -0,9 C -12,5 C
27.02.2010 03:54 -0,2 C 93 % 1002 hPa 0,0 l/m 33,7 km/h (5 Bft) SW45 235 0 min 0 lux 0,00 min -1,2 C -14,7 C
27.02.2010 04:09 -0,3 C 94 % 1002 hPa 0,0 l/m 31,0 km/h (5 Bft) W-SW45 240 0 min 0 lux 0,00 min -1,1 C -14,1 C
27.02.2010 04:24 -0,4 C 94 % 1002 hPa 0,0 l/m 24,4 km/h (4 Bft) W-SW45 240 0 min 0 lux 0,00 min -1,2 C -12,0 C
27.02.2010 04:39 -0,5 C 95 % 1002 hPa 0,0 l/m 34,1 km/h (5 Bft) SW22.5 235 0 min 0 lux 0,00 min -1,2 C -15,3 C
27.02.2010 04:54 -0,5 C 96 % 1002 hPa 0,0 l/m 35,1 km/h (5 Bft) SW22.5 220 0 min 0 lux 0,00 min -1,1 C -15,5 C
27.02.2010 05:09 -0,2 C 97 % 1002 hPa 0,0 l/m 29,6 km/h (5 Bft) SW45 230 0 min 0 lux 0,00 min -0,6 C -13,6 C
27.02.2010 05:24 -0,2 C 96 % 1002 hPa 0,0 l/m 29,0 km/h (5 Bft) SW45 235 0 min 0 lux 0,00 min -0,8 C -13,4 C
27.02.2010 05:39 0,1 C 97 % 1002 hPa 0,0 l/m 33,2 km/h (5 Bft) SW45 235 0 min 0 lux 0,00 min -0,3 C -14,2 C
27.02.2010 05:54 0,3 C 97 % 1002 hPa 0,0 l/m 30,9 km/h (5 Bft) W-SW22.5 240 0 min 0 lux 0,00 min -0,1 C -13,3 C
27.02.2010 06:09 0,4 C 98 % 1002 hPa 0,0 l/m 40,6 km/h (6 Bft) SW45 230 0 min 0 lux 0,00 min 0,1 C -15,5 C
27.02.2010 06:24 0,6 C 98 % 1002 hPa 0,0 l/m 30,6 km/h (5 Bft) SW45 230 0 min 0 lux 0,00 min 0,3 C -12,7 C
27.02.2010 06:39 0,6 C 98 % 1002 hPa 0,0 l/m 37,9 km/h (5 Bft) SW45 230 0 min 0 lux 0,00 min 0,3 C -14,6 C
27.02.2010 06:54 0,5 C 98 % 1002 hPa 0,0 l/m 38,2 km/h (5 Bft) SW45 235 0 min 0 lux 0,00 min 0,2 C -14,8 C
27.02.2010 07:09 0,7 C 98 % 1002 hPa 0,0 l/m 31,2 km/h (5 Bft) SW45 235 0 min 55 lux 0,00 min 0,4 C -12,8 C
27.02.2010 07:24 0,7 C 99 % 1002 hPa 0,0 l/m 29,0 km/h (5 Bft) SW45 230 0 min 610 lux 0,00 min 0,6 C -12,1 C
27.02.2010 07:39 0,8 C 99 % 1002 hPa 0,0 l/m 23,8 km/h (4 Bft) S-SW45 205 0 min 946 lux 0,00 min 0,7 C -10,2 C
27.02.2010 07:54 1,0 C 99 % 1002 hPa 0,0 l/m 32,2 km/h (5 Bft) SW45 215 0 min 1,39 klux 0,00 min 0,9 C -12,6 C
27.02.2010 08:09 1,1 C 99 % 1002 hPa 0,0 l/m 38,6 km/h (5 Bft) SW45 215 0 min 1,04 klux 0,00 min 1,0 C -14,0 C
27.02.2010 08:31 1,2 C 99 % 1002 hPa 0,0 l/m 39,6 km/h (6 Bft) SW45 225 0 min 2,57 klux 0,00 min 1,1 C -14,1 C
27.02.2010 08:46 1,4 C 99 % 1002 hPa 0,0 l/m 38,9 km/h (6 Bft) W-SW45 240 0 min 7,21 klux 0,00 min 1,3 C -13,6 C
27.02.2010 09:00 1,6 C 99 % 1002 hPa 0,0 l/m 33,4 km/h (5 Bft) SW45 215 0 min 8,86 klux 0,00 min 1,5 C -12,1 C
27.02.2010 09:15 1,8 C 99 % 1002 hPa 0,0 l/m 32,9 km/h (5 Bft) SW45 225 0 min 7,95 klux 0,00 min 1,7 C -11,7 C
27.02.2010 09:30 2,0 C 99 % 1002 hPa 0,0 l/m 35,3 km/h (5 Bft) S-SW22.5 210 0 min 10,0 klux 0,00 min 1,9 C -12,0 C
27.02.2010 09:45 2,3 C 99 % 1002 hPa 0,0 l/m 41,7 km/h (6 Bft) SW45 225 0 min 12,7 klux 0,00 min 2,2 C -12,8 C
27.02.2010 10:00 2,5 C 98 % 1002 hPa 0,0 l/m 42,7 km/h (6 Bft) SW45 230 0 min 11,0 klux 0,00 min 2,2 C -12,7 C
27.02.2010 10:16 2,9 C 98 % 1002 hPa 0,0 l/m 43,4 km/h (6 Bft) SW45 230 0 min 16,7 klux 0,00 min 2,6 C -12,2 C
27.02.2010 10:31 3,3 C 97 % 1002 hPa 0,0 l/m 42,5 km/h (6 Bft) SW45 220 0 min 19,2 klux 0,00 min 2,9 C -11,5 C
27.02.2010 10:46 3,5 C 96 % 1002 hPa 0,0 l/m 41,9 km/h (6 Bft) SW45 220 0 min 20,1 klux 0,00 min 2,9 C -11,1 C
27.02.2010 11:00 3,7 C 94 % 1002 hPa 0,0 l/m 48,6 km/h (6 Bft) W-SW45 240 0 min 20,0 klux 0,00 min 2,8 C -11,8 C
27.02.2010 11:15 4,0 C 93 % 1002 hPa 0,0 l/m 45,8 km/h (6 Bft) SW45 225 15 min 29,4 klux 0,00 min 3,0 C -11,0 C
27.02.2010 11:30 4,6 C 92 % 1001 hPa 0,0 l/m 35,8 km/h (5 Bft) SW45 235 15 min 37,3 klux 0,00 min 3,4 C -8,3 C
27.02.2010 11:45 5,6 C 89 % 1002 hPa 0,0 l/m 45,8 km/h (6 Bft) SW45 220 15 min 64,4 klux 0,00 min 3,9 C -8,5 C
27.02.2010 12:01 5,9 C 88 % 1001 hPa 0,0 l/m 41,7 km/h (6 Bft) SW45 235 16 min 67,1 klux 0,00 min 4,1 C -7,5 C
27.02.2010 12:16 6,7 C 85 % 1001 hPa 0,0 l/m 33,5 km/h (5 Bft) SW45 225 15 min 65,5 klux 0,00 min 4,4 C -4,8 C
27.02.2010 12:31 6,7 C 84 % 1001 hPa 0,0 l/m 39,4 km/h (6 Bft) SW67.5 220 15 min 60,9 klux 0,00 min 4,2 C -5,9 C
27.02.2010 12:45 6,9 C 82 % 1001 hPa 0,0 l/m 30,5 km/h (5 Bft) W-SW67.5 240 14 min 58,8 klux 0,00 min 4,0 C -3,8 C
27.02.2010 13:00 6,9 C 83 % 1001 hPa 0,0 l/m 31,7 km/h (5 Bft) SW45 215 15 min 59,5 klux 0,00 min 4,2 C -4,1 C
27.02.2010 13:15 7,2 C 81 % 1001 hPa 0,0 l/m 27,8 km/h (4 Bft) S-SW45 205 15 min 65,9 klux 0,00 min 4,2 C -2,7 C
27.02.2010 13:30 7,6 C 80 % 1001 hPa 0,0 l/m 28,6 km/h (4 Bft) S-SW45 195 15 min 57,3 klux 0,00 min 4,4 C -2,4 C
27.02.2010 13:46 8,0 C 77 % 1000 hPa 0,0 l/m 28,7 km/h (4 Bft) SW45 225 16 min 63,7 klux 0,00 min 4,2 C -1,8 C
27.02.2010 14:01 8,3 C 76 % 1000 hPa 0,0 l/m 25,1 km/h (4 Bft) S-SW45 200 15 min 60,3 klux 0,00 min 4,3 C -0,5 C
27.02.2010 14:15 8,5 C 72 % 1000 hPa 0,0 l/m 30,8 km/h (5 Bft) S-SW67.5 205 14 min 56,8 klux 0,00 min 3,7 C -1,6 C
27.02.2010 14:30 8,6 C 70 % 1000 hPa 0,0 l/m 33,0 km/h (5 Bft) S-SW45 210 15 min 53,4 klux 0,00 min 3,4 C -2,0 C
27.02.2010 14:45 8,8 C 70 % 1000 hPa 0,0 l/m 32,4 km/h (5 Bft) S-SW45 200 15 min 56,8 klux 0,00 min 3,6 C -1,5 C
27.02.2010 15:00 8,5 C 69 % 999 hPa 0,0 l/m 28,6 km/h (4 Bft) S67.5 185 15 min 56,1 klux 0,00 min 3,1 C -1,1 C
27.02.2010 15:16 8,4 C 69 % 999 hPa 0,0 l/m 30,6 km/h (5 Bft) S-SW45 200 16 min 37,6 klux 0,00 min 3,0 C -1,7 C
27.02.2010 15:31 8,3 C 70 % 999 hPa 0,0 l/m 22,1 km/h (4 Bft) S22.5 175 15 min 31,2 klux 0,00 min 3,2 C 0,4 C
27.02.2010 15:46 7,8 C 72 % 999 hPa 0,0 l/m 19,8 km/h (3 Bft) S22.5 170 15 min 29,9 klux 0,00 min 3,1 C 0,5 C
27.02.2010 16:00 7,8 C 72 % 998 hPa 0,0 l/m 17,6 km/h (3 Bft) S-SO22.5 165 14 min 38,2 klux 0,00 min 3,1 C 1,4 C
27.02.2010 16:15 7,7 C 71 % 998 hPa 0,0 l/m 23,6 km/h (4 Bft) S22.5 180 0 min 24,8 klux 0,00 min 2,8 C -0,9 C
27.02.2010 16:30 8,0 C 71 % 998 hPa 0,0 l/m 21,6 km/h (4 Bft) S22.5 170 15 min 37,6 klux 0,00 min 3,1 C 0,2 C
27.02.2010 16:45 8,3 C 69 % 997 hPa 0,0 l/m 22,0 km/h (4 Bft) S22.5 180 15 min 32,9 klux 0,00 min 3,0 C 0,4 C
27.02.2010 17:01 8,1 C 69 % 997 hPa 0,0 l/m 17,5 km/h (3 Bft) S22.5 170 16 min 26,8 klux 0,00 min 2,8 C 1,8 C
27.02.2010 17:16 7,6 C 69 % 997 hPa 0,0 l/m 17,3 km/h (3 Bft) S-SO45 165 0 min 11,2 klux 0,00 min 2,3 C 1,2 C
27.02.2010 17:31 6,9 C 71 % 997 hPa 0,0 l/m 15,6 km/h (3 Bft) S22.5 175 0 min 5,86 klux 0,00 min 2,0 C 1,1 C
27.02.2010 17:45 6,4 C 73 % 997 hPa 0,0 l/m 12,0 km/h (2 Bft) S22.5 180 0 min 3,31 klux 0,00 min 1,9 C 2,4 C
27.02.2010 18:00 5,8 C 74 % 997 hPa 0,0 l/m 10,2 km/h (2 Bft) S22.5 190 0 min 1,03 klux 0,00 min 1,5 C 2,8 C
27.02.2010 18:15 5,4 C 74 % 997 hPa 0,0 l/m 13,6 km/h (3 Bft) S22.5 185 0 min 453 lux 0,00 min 1,1 C 0,3 C
27.02.2010 18:30 5,4 C 74 % 996 hPa 0,0 l/m 14,6 km/h (3 Bft) S22.5 180 0 min 143 lux 0,00 min 1,1 C -0,2 C
27.02.2010 18:46 5,2 C 73 % 996 hPa 0,0 l/m 14,9 km/h (3 Bft) S22.5 170 0 min 24 lux 0,00 min 0,8 C -0,6 C
27.02.2010 19:01 5,1 C 72 % 996 hPa 0,0 l/m 11,9 km/h (2 Bft) S22.5 175 0 min 4 lux 0,00 min 0,5 C 0,9 C
27.02.2010 19:15 4,9 C 72 % 996 hPa 0,0 l/m 11,5 km/h (2 Bft) S-SO22.5 155 0 min 0 lux 0,00 min 0,3 C 1,0 C
27.02.2010 19:30 4,9 C 71 % 996 hPa 0,0 l/m 11,8 km/h (2 Bft) S-SO 165 0 min 0 lux 0,00 min 0,1 C 0,8 C
27.02.2010 19:45 4,9 C 71 % 995 hPa 0,0 l/m 11,9 km/h (2 Bft) S22.5 175 0 min 0 lux 0,00 min 0,1 C 0,7 C
27.02.2010 20:00 4,9 C 71 % 995 hPa 0,0 l/m 13,3 km/h (3 Bft) S22.5 170 0 min 0 lux 0,00 min 0,1 C -0,1 C
27.02.2010 20:16 5,2 C 70 % 995 hPa 0,0 l/m 19,0 km/h (3 Bft) S22.5 170 0 min 0 lux 0,00 min 0,2 C -2,5 C
27.02.2010 20:31 5,1 C 71 % 994 hPa 0,0 l/m 14,1 km/h (3 Bft) S22.5 170 0 min 0 lux 0,00 min 0,3 C -0,3 C
27.02.2010 20:46 4,8 C 71 % 994 hPa 0,0 l/m 12,6 km/h (3 Bft) S45 185 0 min 0 lux 0,00 min -0,0 C 0,2 C
27.02.2010 21:00 4,7 C 71 % 994 hPa 0,0 l/m 10,5 km/h (2 Bft) S45 190 0 min 0 lux 0,00 min -0,1 C 1,4 C
27.02.2010 21:15 4,5 C 71 % 994 hPa 0,0 l/m 10,6 km/h (2 Bft) S45 185 0 min 0 lux 0,00 min -0,3 C 1,1 C
27.02.2010 21:30 4,4 C 71 % 993 hPa 0,0 l/m 11,5 km/h (2 Bft) S45 180 0 min 0 lux 0,00 min -0,4 C 0,4 C
27.02.2010 21:45 4,5 C 71 % 993 hPa 0,0 l/m 15,0 km/h (3 Bft) S22.5 170 0 min 0 lux 0,00 min -0,3 C -1,5 C
27.02.2010 22:01 4,7 C 71 % 993 hPa 0,0 l/m 14,3 km/h (3 Bft) S-SO22.5 165 0 min 0 lux 0,00 min -0,1 C -0,9 C
27.02.2010 22:16 4,9 C 71 % 993 hPa 0,0 l/m 20,3 km/h (4 Bft) S-SO22.5 160 0 min 0 lux 0,00 min 0,1 C -3,4 C
27.02.2010 22:31 4,9 C 71 % 993 hPa 0,0 l/m 19,6 km/h (3 Bft) S-SO22.5 155 0 min 0 lux 0,00 min 0,1 C -3,1 C
27.02.2010 22:45 5,2 C 71 % 992 hPa 0,0 l/m 16,6 km/h (3 Bft) S22.5 170 0 min 0 lux 0,00 min 0,4 C -1,5 C
27.02.2010 23:00 5,3 C 72 % 992 hPa 0,0 l/m 20,0 km/h (4 Bft) S22.5 170 0 min 0 lux 0,00 min 0,7 C -2,8 C
27.02.2010 23:15 5,2 C 73 % 992 hPa 0,0 l/m 23,6 km/h (4 Bft) S22.5 180 0 min 0 lux 0,00 min 0,8 C -4,2 C
27.02.2010 23:30 4,9 C 76 % 992 hPa 0,0 l/m 19,7 km/h (3 Bft) S22.5 170 0 min 0 lux 0,00 min 1,0 C -3,2 C
27.02.2010 23:46 4,6 C 79 % 992 hPa 0,0 l/m 21,2 km/h (4 Bft) S-SO22.5 155 0 min 0 lux 0,00 min 1,3 C -4,2 C
27.02.2010 23:54 4,3 C 82 % 991 hPa 0,0 l/m 13,6 km/h (3 Bft) S22.5 180 0 min 0 lux 0,00 min 1,5 C -1,0 C
_ Min-Zeit 01:54 15:00 23:54 - 18:00 - - - - - 00:10 04:54
Minimum _ -0,6 C 69 % 991 hPa - 10,2 km/h (2 Bft) - - - - - -1,8 C -15,5 C
_ Max-Zeit 14:45 07:24 00:39 00:10 11:00 - - 12:01 12:01 00:10 13:30 18:00
Maximum _ 8,8 C 99 % 1002 hPa 0,0 l/m 48,6 km/h
W-SW (6 Bft)
- - 16 min 67,1 klux 0,00 min 4,4 C 2,8 C
Durchschnitt _ 3,6 C 84 % 999 hPa #0,0 l/m 26,2 km/h (4 Bft) SW - #5:46 h 13,9 klux #0 min. 1,1 C -6,6 C